Time;durP1;ratioP1;P1;durP2;ratioP2;P2;SDS_P1;SDS_P2;PMS_P1;PMS_P2;Temp;Humidity;BMP_temperature;BMP_pressure;BME280_temperature;BME280_humidity;BME280_pressure;Samples;Min_cycle;Max_cycle;Signal;HPM_P1;HPM_P2
2023/08/27 00:00:12;;;;;;;9.38;1.98;;;20.20;83.10;;;;;;4877173;29;20059;-93
2023/08/27 00:02:41;;;;;;;6.80;1.77;;;20.20;83.10;;;;;;4894823;29;20044;-93
2023/08/27 00:05:09;;;;;;;7.70;1.73;;;20.20;83.30;;;;;;4908249;29;20055;-94
2023/08/27 00:07:36;;;;;;;11.00;3.00;;;20.30;83.30;;;;;;4908092;29;20068;-94
2023/08/27 00:10:04;;;;;;;14.43;3.10;;;20.20;83.10;;;;;;4907736;29;20052;-93
2023/08/27 00:12:32;;;;;;;19.60;4.72;;;20.30;83.20;;;;;;4877225;29;20056;-94
2023/08/27 00:14:59;;;;;;;11.23;2.63;;;20.20;83.10;;;;;;4906038;29;20080;-93
2023/08/27 00:17:27;;;;;;;7.87;1.50;;;20.20;83.40;;;;;;4900057;29;20097;-94
2023/08/27 00:19:54;;;;;;;8.98;2.15;;;20.10;83.20;;;;;;4899680;29;20044;-92
2023/08/27 00:22:21;;;;;;;6.60;1.58;;;20.10;83.70;;;;;;4899634;29;20049;-94
2023/08/27 00:24:48;;;;;;;6.75;1.00;;;20.10;83.90;;;;;;4883986;29;20049;-94
2023/08/27 00:27:15;;;;;;;5.18;0.98;;;20.10;83.90;;;;;;4884108;29;20080;-93
2023/08/27 00:29:46;;;;;;;6.13;0.80;;;20.10;83.80;;;;;;4884052;29;20045;-93
2023/08/27 00:32:13;;;;;;;5.35;0.80;;;20.10;83.90;;;;;;4884151;29;20061;-93
2023/08/27 00:34:53;;;;;;;3.75;0.80;;;20.20;84.00;;;;;;4884121;29;20063;-93
2023/08/27 00:37:21;;;;;;;4.68;0.70;;;20.20;83.90;;;;;;4899547;29;20055;-94
2023/08/27 00:39:49;;;;;;;5.18;1.20;;;20.20;83.90;;;;;;4899911;29;20052;-93
2023/08/27 00:42:16;;;;;;;11.70;2.03;;;20.20;83.80;;;;;;4899850;29;20049;-94
2023/08/27 00:44:43;;;;;;;7.50;2.22;;;20.20;84.00;;;;;;4899389;29;20045;-93
2023/08/27 00:47:11;;;;;;;11.05;2.70;;;20.20;84.20;;;;;;4883775;29;20047;-92
2023/08/27 00:49:39;;;;;;;9.52;2.42;;;20.20;84.00;;;;;;4882793;29;20049;-93
2023/08/27 00:52:08;;;;;;;12.73;2.55;;;20.20;84.10;;;;;;4900122;29;20052;-95
2023/08/27 00:54:37;;;;;;;11.30;3.00;;;20.20;84.30;;;;;;4884041;29;20136;-94
2023/08/27 00:57:06;;;;;;;12.52;2.75;;;20.20;84.30;;;;;;4883615;29;20506;-93
2023/08/27 00:59:33;;;;;;;5.65;1.70;;;20.20;84.20;;;;;;4885246;29;20056;-95
2023/08/27 01:02:02;;;;;;;5.38;1.35;;;20.10;84.10;;;;;;4903281;29;20045;-94
2023/08/27 01:04:29;;;;;;;5.57;1.23;;;20.00;84.50;;;;;;4890522;29;20503;-94
2023/08/27 01:07:09;;;;;;;3.73;1.30;;;20.00;84.90;;;;;;4887058;29;20120;-94
2023/08/27 01:09:44;;;;;;;5.35;1.40;;;19.90;84.90;;;;;;4888810;29;20060;-95
2023/08/27 01:12:28;;;;;;;6.97;2.22;;;20.00;85.10;;;;;;4887653;29;20061;-94
2023/08/27 01:14:58;;;;;;;9.23;2.47;;;20.00;85.40;;;;;;4889851;29;20048;-94
2023/08/27 01:17:26;;;;;;;7.38;2.65;;;19.90;85.40;;;;;;4889779;29;20087;-94
2023/08/27 01:19:54;;;;;;;9.37;2.80;;;20.00;85.10;;;;;;4878760;29;20049;-94
2023/08/27 01:22:21;;;;;;;7.88;2.63;;;20.10;85.00;;;;;;4876748;29;20048;-94
2023/08/27 01:24:49;;;;;;;10.52;4.45;;;20.10;85.20;;;;;;4871889;29;20080;-95
2023/08/27 01:27:37;;;;;;;10.23;3.78;;;20.00;85.00;;;;;;4903880;29;20051;-94
2023/08/27 01:30:17;;;;;;;13.95;8.55;;;20.00;85.30;;;;;;4888177;29;20048;-94
2023/08/27 01:32:47;;;;;;;19.93;12.80;;;20.10;84.70;;;;;;4874948;29;20116;-94
2023/08/27 01:35:15;;;;;;;23.27;14.95;;;20.10;84.60;;;;;;4871180;29;20052;-94
2023/08/27 01:37:44;;;;;;;17.08;8.15;;;20.20;84.60;;;;;;4887880;29;20056;-94
2023/08/27 01:40:11;;;;;;;15.82;9.57;;;20.10;84.20;;;;;;4873356;29;20053;-93
2023/08/27 01:42:39;;;;;;;11.88;5.18;;;20.10;84.90;;;;;;4887658;29;20041;-94
2023/08/27 01:45:08;;;;;;;11.03;3.73;;;20.00;85.10;;;;;;4900629;29;20112;-95
2023/08/27 01:47:36;;;;;;;7.43;2.00;;;20.10;85.20;;;;;;4885468;29;20049;-94
2023/08/27 01:50:05;;;;;;;7.18;2.28;;;20.10;84.90;;;;;;4900920;29;20048;-94
2023/08/27 01:52:35;;;;;;;8.77;3.13;;;20.00;84.70;;;;;;4885211;29;20522;-93
2023/08/27 01:55:04;;;;;;;10.88;3.78;;;20.00;84.80;;;;;;4900794;29;20111;-94
2023/08/27 01:57:34;;;;;;;9.73;3.37;;;19.90;85.30;;;;;;4871200;29;20115;-93
2023/08/27 02:00:01;;;;;;;9.65;3.13;;;19.90;85.40;;;;;;4901399;29;20056;-93
2023/08/27 02:02:31;;;;;;;8.23;2.58;;;20.00;85.20;;;;;;4886004;29;20048;-94
2023/08/27 02:04:59;;;;;;;7.85;2.28;;;20.00;84.60;;;;;;4902309;29;20045;-93
2023/08/27 02:07:26;;;;;;;6.35;1.98;;;20.10;84.60;;;;;;4898929;29;20459;-92
2023/08/27 02:09:53;;;;;;;4.73;1.50;;;20.10;84.70;;;;;;4898642;29;20053;-92
2023/08/27 02:12:31;;;;;;;5.97;1.60;;;20.10;84.20;;;;;;4883066;29;20059;-93
2023/08/27 02:14:59;;;;;;;5.75;2.00;;;20.20;84.10;;;;;;4868418;29;20569;-94
2023/08/27 02:17:26;;;;;;;6.50;2.08;;;20.20;84.00;;;;;;4884191;29;20052;-94
2023/08/27 02:19:53;;;;;;;5.75;1.83;;;20.20;84.20;;;;;;4900798;29;20048;-95
2023/08/27 02:22:21;;;;;;;6.70;2.00;;;20.20;84.10;;;;;;4884917;29;20044;-94
2023/08/27 02:24:48;;;;;;;6.20;2.10;;;20.20;83.80;;;;;;4900173;29;20147;-93
2023/08/27 02:27:16;;;;;;;6.07;2.00;;;20.20;83.90;;;;;;4884703;29;20037;-94
2023/08/27 02:29:43;;;;;;;6.43;2.13;;;20.20;83.70;;;;;;4885031;29;20049;-93
2023/08/27 02:32:10;;;;;;;6.50;2.20;;;20.20;83.80;;;;;;4884169;29;20068;-94
2023/08/27 02:34:38;;;;;;;6.23;1.97;;;20.30;83.70;;;;;;4900033;29;20099;-95
2023/08/27 02:37:05;;;;;;;7.75;1.98;;;20.20;83.80;;;;;;4900953;29;20533;-92
2023/08/27 02:39:32;;;;;;;7.07;2.13;;;20.20;83.70;;;;;;4887122;29;20077;-94
2023/08/27 02:41:59;;;;;;;16.95;4.30;;;20.20;83.60;;;;;;4905051;29;20057;-95
2023/08/27 02:44:27;;;;;;;11.13;3.00;;;20.20;83.60;;;;;;4858100;29;20079;-93
2023/08/27 02:46:54;;;;;;;11.10;3.63;;;20.30;83.40;;;;;;4905182;29;20083;-93
2023/08/27 02:49:21;;;;;;;10.90;3.08;;;20.30;83.20;;;;;;4907305;29;20049;-93
2023/08/27 02:51:49;;;;;;;9.70;3.13;;;20.30;83.00;;;;;;4892610;29;20055;-94
2023/08/27 02:54:16;;;;;;;10.05;3.50;;;20.30;83.00;;;;;;4894635;29;20052;-94
2023/08/27 02:56:44;;;;;;;10.93;3.58;;;20.30;83.00;;;;;;4880725;29;20055;-95
2023/08/27 02:59:12;;;;;;;14.13;3.37;;;20.20;83.40;;;;;;4893359;29;20112;-93
2023/08/27 03:01:39;;;;;;;9.45;3.38;;;20.20;83.60;;;;;;4874571;29;20049;-93
2023/08/27 03:04:06;;;;;;;8.80;3.70;;;20.10;83.70;;;;;;4877493;29;20052;-93
2023/08/27 03:06:34;;;;;;;11.13;3.40;;;20.20;83.70;;;;;;4906383;29;20048;-94
2023/08/27 03:09:01;;;;;;;10.07;3.17;;;20.10;83.90;;;;;;4908882;29;20112;-93
2023/08/27 03:11:29;;;;;;;10.43;3.10;;;20.10;84.00;;;;;;4905307;29;20055;-95
2023/08/27 03:13:58;;;;;;;7.45;3.13;;;20.00;84.10;;;;;;4896034;29;20072;-94
2023/08/27 03:16:25;;;;;;;7.13;2.38;;;20.00;84.40;;;;;;4881802;29;20078;-95
2023/08/27 03:18:53;;;;;;;7.90;3.08;;;20.00;84.40;;;;;;4912530;29;20056;-94
2023/08/27 03:21:21;;;;;;;6.38;2.45;;;20.00;84.70;;;;;;4915384;29;20056;-94
2023/08/27 03:23:48;;;;;;;6.93;2.23;;;20.00;84.70;;;;;;4897080;29;20052;-94
2023/08/27 03:26:16;;;;;;;6.00;2.20;;;19.90;84.70;;;;;;4896366;29;20073;-94
2023/08/27 03:28:44;;;;;;;6.35;2.58;;;19.90;84.80;;;;;;4909515;29;20501;-94
2023/08/27 03:31:11;;;;;;;6.45;2.38;;;19.90;84.90;;;;;;4878548;29;20052;-94
2023/08/27 03:33:39;;;;;;;6.05;2.58;;;19.90;84.80;;;;;;4906252;29;20052;-94
2023/08/27 03:36:06;;;;;;;5.40;2.20;;;19.90;84.90;;;;;;4907212;29;20054;-93
2023/08/27 03:38:37;;;;;;;7.40;2.53;;;19.90;84.90;;;;;;4906742;29;20048;-95
2023/08/27 03:41:04;;;;;;;6.47;2.05;;;19.90;85.00;;;;;;4894062;29;20581;-94
2023/08/27 03:43:32;;;;;;;5.82;1.85;;;20.00;84.80;;;;;;4893658;29;20116;-95
2023/08/27 03:45:59;;;;;;;7.45;1.70;;;20.00;84.60;;;;;;4892546;29;20044;-94
2023/08/27 03:48:27;;;;;;;5.53;2.00;;;20.10;84.20;;;;;;4909877;29;20064;-95
2023/08/27 03:50:55;;;;;;;5.95;1.77;;;20.10;84.10;;;;;;4881388;29;20069;-94
2023/08/27 03:53:22;;;;;;;6.30;2.08;;;20.10;84.00;;;;;;4893369;29;20073;-94
2023/08/27 03:55:50;;;;;;;6.65;2.33;;;20.10;83.70;;;;;;4879754;29;20052;-94
2023/08/27 03:58:17;;;;;;;7.22;2.50;;;20.20;83.60;;;;;;4892518;29;20053;-93
2023/08/27 04:00:46;;;;;;;5.63;1.97;;;20.20;83.40;;;;;;4892243;29;20052;-94
2023/08/27 04:03:14;;;;;;;5.90;2.42;;;20.10;83.40;;;;;;4875256;29;20053;-93
2023/08/27 04:05:42;;;;;;;6.07;2.20;;;20.20;83.50;;;;;;4894359;29;20072;-94
2023/08/27 04:08:10;;;;;;;5.03;2.00;;;20.20;83.50;;;;;;4895828;29;20507;-93
2023/08/27 04:10:37;;;;;;;8.73;2.22;;;20.20;83.40;;;;;;4880341;29;20044;-95
2023/08/27 04:13:06;;;;;;;6.43;2.23;;;20.10;83.40;;;;;;4894995;29;20056;-94
2023/08/27 04:15:33;;;;;;;7.47;2.45;;;20.10;83.60;;;;;;4909139;29;20072;-94
2023/08/27 04:18:02;;;;;;;6.10;2.38;;;20.10;83.70;;;;;;4909141;29;20052;-93
2023/08/27 04:20:31;;;;;;;7.20;2.42;;;20.10;83.70;;;;;;4881671;29;20549;-93
2023/08/27 04:22:58;;;;;;;6.43;2.35;;;20.10;83.70;;;;;;4895584;29;20060;-95
2023/08/27 04:25:27;;;;;;;6.80;2.40;;;20.10;83.80;;;;;;4877199;29;20048;-94
2023/08/27 04:27:55;;;;;;;7.78;2.25;;;20.10;83.90;;;;;;4881150;29;20044;-94
2023/08/27 04:30:23;;;;;;;8.25;2.30;;;20.10;83.90;;;;;;4911204;29;20047;-94
2023/08/27 04:32:51;;;;;;;7.35;2.47;;;20.20;83.90;;;;;;4895622;29;20053;-94
2023/08/27 04:35:18;;;;;;;6.00;2.42;;;20.20;83.60;;;;;;4911051;29;20506;-94
2023/08/27 04:37:48;;;;;;;6.07;1.93;;;20.30;83.80;;;;;;4895015;29;20048;-94
2023/08/27 04:40:16;;;;;;;5.63;2.20;;;20.30;83.80;;;;;;4892085;29;20049;-94
2023/08/27 04:42:43;;;;;;;8.68;2.60;;;20.30;83.90;;;;;;4876313;29;20052;-94
2023/08/27 04:45:10;;;;;;;6.35;2.22;;;20.30;84.10;;;;;;4889353;29;20075;-93
2023/08/27 04:47:41;;;;;;;6.47;2.22;;;20.30;84.20;;;;;;4890729;29;20041;-94
2023/08/27 04:50:09;;;;;;;7.27;2.20;;;20.30;84.40;;;;;;4892788;29;20055;-93
2023/08/27 04:52:36;;;;;;;6.80;2.20;;;20.40;84.30;;;;;;4894160;29;20049;-95
2023/08/27 04:55:08;;;;;;;8.45;2.10;;;20.50;84.30;;;;;;4889712;29;20049;-93
2023/08/27 04:57:36;;;;;;;10.90;2.40;;;20.50;84.20;;;;;;4891566;29;20077;-94
2023/08/27 05:00:13;;;;;;;7.07;2.15;;;20.50;84.00;;;;;;4871943;29;20087;-95
2023/08/27 05:02:40;;;;;;;5.87;2.70;;;20.60;83.70;;;;;;4886194;29;20144;-94
2023/08/27 05:05:08;;;;;;;6.70;2.45;;;20.60;83.70;;;;;;4901269;29;20044;-94
2023/08/27 05:07:35;;;;;;;8.98;2.95;;;20.50;83.80;;;;;;4899684;29;20061;-92
2023/08/27 05:10:03;;;;;;;8.02;2.80;;;20.50;83.60;;;;;;4899421;29;20417;-94
2023/08/27 05:12:30;;;;;;;8.60;3.22;;;20.50;83.70;;;;;;4884101;29;20041;-93
2023/08/27 05:14:57;;;;;;;8.03;3.07;;;20.50;83.50;;;;;;4883995;29;20558;-93
2023/08/27 05:17:24;;;;;;;8.48;3.40;;;20.60;83.30;;;;;;4883410;29;20517;-94
2023/08/27 05:19:51;;;;;;;10.48;3.35;;;20.60;83.30;;;;;;4883410;29;20049;-93
2023/08/27 05:22:20;;;;;;;7.93;3.30;;;20.70;83.40;;;;;;4899050;29;20112;-93
2023/08/27 05:24:48;;;;;;;7.78;3.10;;;20.70;83.40;;;;;;4883019;29;20521;-93
2023/08/27 05:27:15;;;;;;;9.33;3.37;;;20.70;83.20;;;;;;4882902;29;20208;-91
2023/08/27 05:29:42;;;;;;;15.90;4.75;;;20.70;83.30;;;;;;4883160;29;20044;-93
2023/08/27 05:32:09;;;;;;;21.52;7.72;;;20.80;83.30;;;;;;4882904;29;20087;-93
2023/08/27 05:34:36;;;;;;;21.02;7.63;;;20.80;83.30;;;;;;4883215;29;20570;-93
2023/08/27 05:37:05;;;;;;;25.98;8.10;;;20.90;83.30;;;;;;4898616;29;20459;-93
2023/08/27 05:39:33;;;;;;;30.77;9.60;;;21.00;82.80;;;;;;4883363;29;20052;-93
2023/08/27 05:42:01;;;;;;;22.98;9.70;;;21.00;82.70;;;;;;4898939;29;20059;-93
2023/08/27 05:44:30;;;;;;;20.17;8.65;;;21.10;82.70;;;;;;4882703;29;20194;-93
2023/08/27 05:47:00;;;;;;;19.73;7.32;;;21.30;82.00;;;;;;4898475;29;20087;-94
2023/08/27 05:49:27;;;;;;;17.20;6.95;;;21.40;81.80;;;;;;4883043;29;20057;-92
2023/08/27 05:51:56;;;;;;;14.60;6.13;;;21.50;82.00;;;;;;4868289;29;20048;-93
2023/08/27 05:54:24;;;;;;;8.63;3.30;;;21.50;82.10;;;;;;4898686;29;20076;-93
2023/08/27 05:56:51;;;;;;;6.78;2.88;;;21.50;81.10;;;;;;4898862;29;20060;-93
2023/08/27 05:59:19;;;;;;;9.27;2.95;;;21.60;81.00;;;;;;4899061;29;20452;-93
2023/08/27 06:01:46;;;;;;;7.68;2.85;;;21.60;81.50;;;;;;4898581;29;20396;-92
2023/08/27 06:04:13;;;;;;;8.77;2.67;;;21.60;81.60;;;;;;4882705;29;20045;-92
2023/08/27 06:06:41;;;;;;;8.13;2.55;;;21.60;81.30;;;;;;4898366;29;20084;-92
2023/08/27 06:09:08;;;;;;;7.45;2.67;;;21.60;80.90;;;;;;4898170;29;20052;-92
2023/08/27 06:11:35;;;;;;;9.15;2.72;;;21.70;80.90;;;;;;4898618;29;20410;-93
2023/08/27 06:14:03;;;;;;;8.20;3.15;;;21.60;80.70;;;;;;4883848;29;20053;-92
2023/08/27 06:16:30;;;;;;;10.50;5.30;;;21.60;81.70;;;;;;4882619;29;20052;-93
2023/08/27 06:18:57;;;;;;;8.55;4.28;;;21.50;81.50;;;;;;4899166;29;20062;-88
2023/08/27 06:21:24;;;;;;;10.45;5.72;;;21.60;81.50;;;;;;4898015;29;20063;-88
2023/08/27 06:23:51;;;;;;;12.98;7.15;;;21.60;81.70;;;;;;4882502;29;20509;-88
2023/08/27 06:26:18;;;;;;;14.43;6.80;;;21.60;81.90;;;;;;4898147;29;20471;-88
2023/08/27 06:28:46;;;;;;;13.97;7.23;;;21.60;81.90;;;;;;4882543;29;20040;-88
2023/08/27 06:31:13;;;;;;;18.15;9.30;;;21.60;81.70;;;;;;4897806;29;20053;-88
2023/08/27 06:33:42;;;;;;;15.07;7.78;;;21.60;81.80;;;;;;4882451;29;20139;-88
2023/08/27 06:36:09;;;;;;;15.13;7.68;;;21.60;81.60;;;;;;4897901;29;20148;-89
2023/08/27 06:38:37;;;;;;;14.10;7.03;;;21.60;81.30;;;;;;4898025;29;20087;-88
2023/08/27 06:41:04;;;;;;;13.93;6.57;;;21.60;81.30;;;;;;4898095;29;20048;-88
2023/08/27 06:43:32;;;;;;;15.07;7.22;;;21.70;81.10;;;;;;4898036;29;20055;-88
2023/08/27 06:45:59;;;;;;;13.75;7.60;;;21.70;81.20;;;;;;4897744;29;20053;-88
2023/08/27 06:48:26;;;;;;;14.52;7.72;;;21.60;81.10;;;;;;4899818;29;20406;-88
2023/08/27 06:50:53;;;;;;;17.05;10.10;;;21.60;81.80;;;;;;4885773;29;20048;-88
2023/08/27 06:53:20;;;;;;;17.50;9.00;;;21.50;81.10;;;;;;4885594;29;20135;-88
2023/08/27 06:55:47;;;;;;;18.83;10.80;;;21.60;81.40;;;;;;4901479;29;20048;-89
2023/08/27 06:58:14;;;;;;;18.35;10.00;;;21.60;81.60;;;;;;4870140;29;20060;-88
2023/08/27 07:00:41;;;;;;;17.13;9.32;;;21.60;82.00;;;;;;4885600;29;20056;-89
2023/08/27 07:03:09;;;;;;;16.52;9.35;;;21.70;81.80;;;;;;4885555;29;20052;-88
2023/08/27 07:05:36;;;;;;;17.47;10.30;;;21.80;81.40;;;;;;4885524;29;20051;-89
2023/08/27 07:08:04;;;;;;;18.45;10.30;;;21.80;81.70;;;;;;4885281;29;20048;-88
2023/08/27 07:10:31;;;;;;;26.13;13.50;;;22.00;81.30;;;;;;4885476;29;20387;-89
2023/08/27 07:12:58;;;;;;;20.85;12.88;;;22.10;80.50;;;;;;4885641;29;20525;-89
2023/08/27 07:15:25;;;;;;;22.35;13.00;;;22.10;80.30;;;;;;4885258;29;20143;-89
2023/08/27 07:17:52;;;;;;;20.23;12.07;;;22.20;80.10;;;;;;4885209;29;20092;-88
2023/08/27 07:20:19;;;;;;;24.67;14.40;;;22.20;80.00;;;;;;4885186;29;20041;-89
2023/08/27 07:22:47;;;;;;;26.38;15.93;;;22.30;80.40;;;;;;4885020;29;20063;-89
2023/08/27 07:25:14;;;;;;;22.83;14.35;;;22.30;79.90;;;;;;4885210;29;20056;-90
2023/08/27 07:27:46;;;;;;;23.33;14.30;;;22.50;79.90;;;;;;4885031;29;20502;-88
2023/08/27 07:30:13;;;;;;;23.97;14.47;;;22.60;78.80;;;;;;4884988;29;20131;-89
2023/08/27 07:32:40;;;;;;;22.88;14.68;;;22.70;78.50;;;;;;4885038;29;20040;-89
2023/08/27 07:35:07;;;;;;;21.33;13.82;;;22.80;78.50;;;;;;4885233;29;20070;-88
2023/08/27 07:37:36;;;;;;;19.85;12.93;;;22.80;77.80;;;;;;4884810;29;20532;-89
2023/08/27 07:40:09;;;;;;;20.40;12.65;;;22.90;77.50;;;;;;4885313;29;20478;-89
2023/08/27 07:42:37;;;;;;;17.13;11.37;;;22.90;77.80;;;;;;4884786;29;20139;-89
2023/08/27 07:45:05;;;;;;;19.83;12.90;;;23.00;77.30;;;;;;4869422;29;20044;-88
2023/08/27 07:47:32;;;;;;;19.00;12.85;;;23.00;76.50;;;;;;4884590;29;20074;-89
2023/08/27 07:49:59;;;;;;;17.33;11.57;;;23.10;76.40;;;;;;4885278;29;20409;-89
2023/08/27 07:52:26;;;;;;;18.58;12.98;;;23.10;76.00;;;;;;4884477;29;20076;-89
2023/08/27 07:54:53;;;;;;;21.57;13.07;;;23.10;76.20;;;;;;4884692;29;20045;-89
2023/08/27 07:57:20;;;;;;;17.52;11.60;;;23.10;76.50;;;;;;4884541;29;20543;-89
2023/08/27 07:59:48;;;;;;;21.42;13.13;;;23.10;77.10;;;;;;4884326;29;20052;-88
2023/08/27 08:02:15;;;;;;;18.15;13.32;;;23.20;77.40;;;;;;4884532;29;20048;-88
2023/08/27 08:04:42;;;;;;;19.83;14.48;;;23.10;77.40;;;;;;4884323;29;20524;-89
2023/08/27 08:07:09;;;;;;;21.00;15.07;;;23.00;77.20;;;;;;4884330;29;20080;-89
2023/08/27 08:09:36;;;;;;;20.35;14.52;;;22.70;77.30;;;;;;4884141;29;20049;-89
2023/08/27 08:12:04;;;;;;;21.65;14.30;;;22.70;77.60;;;;;;4884418;29;20053;-89
2023/08/27 08:14:31;;;;;;;22.58;14.63;;;22.80;78.10;;;;;;4868837;29;20060;-89
2023/08/27 08:16:58;;;;;;;19.98;14.23;;;22.90;77.40;;;;;;4884231;29;20056;-89
2023/08/27 08:19:25;;;;;;;18.23;12.80;;;23.00;77.20;;;;;;4884233;29;20048;-89
2023/08/27 08:21:52;;;;;;;18.83;13.85;;;23.10;76.60;;;;;;4884116;29;20115;-89
2023/08/27 08:24:19;;;;;;;19.77;13.20;;;23.20;77.30;;;;;;4868624;29;20040;-89
2023/08/27 08:26:49;;;;;;;17.73;13.25;;;23.30;76.20;;;;;;4883863;29;20060;-89
2023/08/27 08:29:16;;;;;;;19.20;11.73;;;23.30;75.70;;;;;;4884076;29;20116;-89
2023/08/27 08:31:43;;;;;;;15.97;11.60;;;23.30;75.00;;;;;;4883801;29;20502;-88
2023/08/27 08:34:10;;;;;;;18.08;12.63;;;23.40;75.10;;;;;;4868618;29;20063;-89
2023/08/27 08:36:37;;;;;;;17.45;12.70;;;23.50;75.30;;;;;;4883882;29;20077;-88
2023/08/27 08:39:04;;;;;;;16.73;12.23;;;23.50;74.70;;;;;;4883917;29;20056;-89
2023/08/27 08:41:37;;;;;;;17.90;12.77;;;23.60;74.70;;;;;;4883737;29;20415;-89
2023/08/27 08:44:12;;;;;;;17.77;12.03;;;23.60;75.00;;;;;;4883764;29;20051;-89
2023/08/27 08:46:41;;;;;;;17.40;12.70;;;23.60;75.70;;;;;;4883510;29;20514;-89
2023/08/27 08:49:15;;;;;;;17.13;12.05;;;23.50;75.10;;;;;;4868287;29;20056;-89
2023/08/27 08:51:43;;;;;;;19.15;12.55;;;23.40;75.30;;;;;;4883739;29;20052;-89
2023/08/27 08:54:15;;;;;;;17.45;12.07;;;23.30;75.20;;;;;;4883673;29;20053;-89
2023/08/27 08:56:48;;;;;;;18.13;11.87;;;23.20;75.50;;;;;;4883668;29;20063;-88
2023/08/27 08:59:16;;;;;;;16.05;11.15;;;23.30;75.80;;;;;;4867859;29;20091;-89
2023/08/27 09:01:43;;;;;;;15.98;11.65;;;23.20;75.40;;;;;;4883302;29;20052;-88
2023/08/27 09:04:13;;;;;;;17.33;12.23;;;23.40;75.20;;;;;;4883730;29;20056;-88
2023/08/27 09:06:41;;;;;;;16.48;11.77;;;23.50;74.50;;;;;;4883074;29;20494;-88
2023/08/27 09:09:10;;;;;;;18.00;12.37;;;23.70;74.50;;;;;;4883194;29;20060;-88
2023/08/27 09:11:37;;;;;;;12.63;9.15;;;23.90;74.80;;;;;;4883439;29;20055;-89
2023/08/27 09:14:05;;;;;;;14.57;9.85;;;24.10;73.20;;;;;;4883381;29;20056;-89
2023/08/27 09:16:32;;;;;;;14.73;10.27;;;24.10;72.90;;;;;;4883242;29;20049;-88
2023/08/27 09:18:59;;;;;;;15.45;10.60;;;24.20;72.70;;;;;;4883063;29;20048;-89
2023/08/27 09:21:26;;;;;;;17.00;10.87;;;24.20;72.50;;;;;;4882980;29;20502;-88
2023/08/27 09:23:57;;;;;;;15.32;11.18;;;24.20;72.30;;;;;;4882769;29;20048;-89
2023/08/27 09:26:25;;;;;;;15.73;11.15;;;24.30;73.20;;;;;;4883248;29;20084;-88
2023/08/27 09:28:54;;;;;;;15.55;10.68;;;24.40;72.20;;;;;;4867571;29;20119;-89
2023/08/27 09:31:42;;;;;;;16.80;10.88;;;24.40;71.80;;;;;;4882960;29;20052;-88
2023/08/27 09:34:12;;;;;;;16.00;10.10;;;24.60;72.00;;;;;;4883025;29;20411;-89
2023/08/27 09:36:40;;;;;;;15.88;10.68;;;24.60;71.80;;;;;;4882904;29;20056;-88
2023/08/27 09:39:11;;;;;;;17.30;12.02;;;24.60;71.20;;;;;;4882851;29;20059;-88
2023/08/27 09:41:41;;;;;;;16.95;10.85;;;24.60;70.60;;;;;;4882599;29;20125;-89
2023/08/27 09:44:08;;;;;;;14.95;10.57;;;24.70;71.10;;;;;;4867333;29;20056;-88
2023/08/27 09:46:36;;;;;;;16.53;11.03;;;24.90;71.60;;;;;;4882711;29;20115;-88
2023/08/27 09:49:06;;;;;;;15.27;10.95;;;24.90;70.00;;;;;;4867374;29;20048;-88
2023/08/27 09:51:37;;;;;;;16.45;11.38;;;24.90;71.30;;;;;;4882870;29;20048;-88
2023/08/27 09:54:15;;;;;;;17.58;11.30;;;24.80;71.40;;;;;;4882743;29;20056;-88
2023/08/27 09:56:48;;;;;;;16.85;11.55;;;24.70;71.70;;;;;;4882561;29;20131;-88
2023/08/27 09:59:17;;;;;;;17.43;11.30;;;24.90;72.20;;;;;;4882518;29;20084;-89
2023/08/27 10:01:49;;;;;;;17.45;12.25;;;24.90;71.40;;;;;;4867181;29;20101;-88
2023/08/27 10:04:17;;;;;;;15.98;12.07;;;25.00;71.50;;;;;;4882613;29;20055;-88
2023/08/27 10:06:45;;;;;;;18.27;12.15;;;25.00;71.50;;;;;;4867095;29;20056;-88
2023/08/27 10:09:12;;;;;;;17.45;12.57;;;24.90;70.70;;;;;;4882459;29;20052;-88
2023/08/27 10:11:43;;;;;;;19.37;12.27;;;25.00;70.20;;;;;;4867032;29;20126;-88
2023/08/27 10:14:10;;;;;;;17.67;12.15;;;25.10;70.90;;;;;;4882485;29;20055;-89
2023/08/27 10:16:39;;;;;;;18.00;12.55;;;25.00;70.60;;;;;;4882463;29;20063;-88
2023/08/27 10:19:06;;;;;;;15.90;11.60;;;25.10;71.00;;;;;;4882352;29;20075;-88
2023/08/27 10:21:33;;;;;;;17.35;12.65;;;25.40;70.30;;;;;;4882892;29;20115;-88
2023/08/27 10:24:01;;;;;;;16.40;11.97;;;25.60;70.50;;;;;;4886488;29;20183;-89
2023/08/27 10:26:30;;;;;;;17.65;12.75;;;25.60;71.10;;;;;;4901743;29;20510;-88
2023/08/27 10:28:59;;;;;;;20.13;13.38;;;25.70;70.30;;;;;;4886004;29;20465;-88
2023/08/27 10:31:26;;;;;;;19.98;13.52;;;25.60;69.40;;;;;;4870691;29;20045;-88
2023/08/27 10:33:53;;;;;;;18.70;13.00;;;25.60;70.80;;;;;;4886048;29;20068;-89
2023/08/27 10:36:27;;;;;;;18.83;13.77;;;25.60;69.70;;;;;;4886346;29;20048;-88
2023/08/27 10:38:56;;;;;;;20.35;13.25;;;25.60;69.30;;;;;;4885619;29;20080;-89
2023/08/27 10:41:26;;;;;;;18.55;13.20;;;25.70;69.30;;;;;;4870492;29;20100;-88
2023/08/27 10:43:53;;;;;;;17.98;12.23;;;25.80;70.30;;;;;;4885725;29;20101;-88
2023/08/27 10:46:24;;;;;;;18.38;12.18;;;25.80;69.60;;;;;;4885774;29;20044;-88
2023/08/27 10:48:53;;;;;;;18.77;14.00;;;25.80;70.00;;;;;;4885785;29;20052;-88
2023/08/27 10:51:27;;;;;;;20.13;13.65;;;25.90;69.60;;;;;;4885973;29;20075;-88
2023/08/27 10:53:57;;;;;;;18.88;13.13;;;26.00;69.70;;;;;;4885692;29;20091;-89
2023/08/27 10:56:38;;;;;;;18.95;13.10;;;26.00;69.20;;;;;;4885784;29;20049;-88
2023/08/27 10:59:11;;;;;;;19.92;13.85;;;25.80;69.00;;;;;;4885436;29;20101;-88
2023/08/27 11:01:54;;;;;;;18.23;12.87;;;25.60;70.00;;;;;;4885646;29;20053;-88
2023/08/27 11:04:40;;;;;;;18.70;14.05;;;25.60;70.60;;;;;;4885596;29;20103;-88
2023/08/27 11:07:18;;;;;;;18.58;13.90;;;25.80;70.70;;;;;;4885452;29;20062;-88
2023/08/27 11:09:49;;;;;;;19.60;14.43;;;25.80;70.60;;;;;;4885437;29;20060;-89
2023/08/27 11:12:23;;;;;;;19.85;14.25;;;26.00;69.70;;;;;;4885453;29;20080;-88
2023/08/27 11:14:50;;;;;;;20.10;14.00;;;26.10;68.90;;;;;;4885369;29;20048;-88
2023/08/27 11:17:28;;;;;;;21.02;14.90;;;25.90;69.20;;;;;;4870044;29;20048;-88
2023/08/27 11:19:57;;;;;;;21.38;14.13;;;25.90;70.10;;;;;;4885185;29;20518;-89
2023/08/27 11:22:24;;;;;;;23.25;14.88;;;25.90;70.10;;;;;;4870145;29;20088;-88
2023/08/27 11:24:53;;;;;;;17.98;14.05;;;26.00;70.10;;;;;;4885032;29;20049;-88
2023/08/27 11:27:22;;;;;;;19.20;13.57;;;26.20;70.10;;;;;;4869751;29;20045;-88
2023/08/27 11:29:54;;;;;;;18.58;14.00;;;26.30;69.20;;;;;;4885070;29;20586;-88
2023/08/27 11:32:21;;;;;;;21.92;13.52;;;26.20;68.90;;;;;;4884973;29;20089;-89
2023/08/27 11:34:51;;;;;;;17.55;12.98;;;26.10;69.80;;;;;;4868877;29;20422;-88
2023/08/27 11:37:20;;;;;;;18.52;13.85;;;26.00;70.40;;;;;;4884764;29;20053;-88
2023/08/27 11:39:48;;;;;;;21.40;14.07;;;26.00;70.70;;;;;;4885105;29;20052;-88
2023/08/27 11:42:16;;;;;;;20.30;13.70;;;26.10;70.00;;;;;;4884872;29;20048;-88
2023/08/27 11:44:51;;;;;;;20.33;14.00;;;26.20;69.80;;;;;;4884682;29;20053;-88
2023/08/27 11:47:20;;;;;;;19.25;14.07;;;26.10;70.40;;;;;;4884617;29;20577;-88
2023/08/27 11:49:48;;;;;;;18.30;13.68;;;26.00;69.40;;;;;;4884848;29;20048;-88
2023/08/27 11:52:15;;;;;;;17.50;13.30;;;26.00;70.00;;;;;;4884578;29;20443;-89
2023/08/27 11:54:43;;;;;;;18.40;13.73;;;26.10;70.10;;;;;;4884540;29;20410;-88
2023/08/27 11:57:10;;;;;;;18.55;13.95;;;26.00;69.20;;;;;;4884364;29;20091;-88
2023/08/27 11:59:38;;;;;;;18.45;14.18;;;26.00;70.80;;;;;;4884554;29;20131;-88
2023/08/27 12:02:11;;;;;;;20.13;15.13;;;26.00;70.30;;;;;;4884323;29;20146;-89
2023/08/27 12:04:41;;;;;;;18.93;13.83;;;26.10;69.60;;;;;;4884328;29;20108;-89
2023/08/27 12:07:09;;;;;;;20.92;14.52;;;26.30;70.10;;;;;;4884234;29;20052;-88
2023/08/27 12:09:36;;;;;;;20.40;13.55;;;26.60;69.60;;;;;;4884340;29;20070;-89
2023/08/27 12:12:06;;;;;;;19.95;14.35;;;26.60;69.00;;;;;;4868905;29;20045;-88
2023/08/27 12:14:35;;;;;;;19.20;13.90;;;26.60;69.30;;;;;;4869181;29;20041;-89
2023/08/27 12:17:05;;;;;;;19.33;14.43;;;26.60;69.10;;;;;;4884075;29;20092;-89
2023/08/27 12:19:32;;;;;;;19.77;13.75;;;26.60;69.00;;;;;;4868804;29;20080;-88
2023/08/27 12:21:59;;;;;;;20.20;14.48;;;26.80;68.00;;;;;;4884181;29;20040;-89
2023/08/27 12:24:33;;;;;;;18.73;14.35;;;26.60;67.90;;;;;;4883915;29;20115;-88
2023/08/27 12:27:06;;;;;;;18.70;14.07;;;26.60;68.40;;;;;;4884135;29;20135;-88
2023/08/27 12:29:36;;;;;;;21.80;14.43;;;26.70;68.80;;;;;;4884078;29;20048;-89
2023/08/27 12:32:11;;;;;;;19.08;14.68;;;26.70;68.50;;;;;;4884180;29;20136;-89
2023/08/27 12:34:40;;;;;;;21.80;14.27;;;26.70;68.80;;;;;;4883813;29;20105;-89
2023/08/27 12:37:08;;;;;;;19.98;15.07;;;26.80;68.90;;;;;;4868463;29;20055;-89
2023/08/27 12:39:40;;;;;;;20.65;15.82;;;26.70;70.10;;;;;;4883995;29;20090;-88
2023/08/27 12:42:09;;;;;;;20.97;15.90;;;26.70;68.90;;;;;;4883927;29;20080;-89